sensor_id;sensor_type;location;lat;lon;timestamp;pressure;altitude;pressure_sealevel;temperature;humidity
52105;BME280;38103;42.776;23.112;2022-08-20T00:00:19;93657.69;;;20.99;62.40
52105;BME280;38103;42.776;23.112;2022-08-20T00:02:51;93653.94;;;21.00;62.88
52105;BME280;38103;42.776;23.112;2022-08-20T00:05:26;93656.22;;;20.93;63.35
52105;BME280;38103;42.776;23.112;2022-08-20T00:07:52;93653.75;;;20.96;63.57
52105;BME280;38103;42.776;23.112;2022-08-20T00:10:18;93597.94;;;20.61;63.96
52105;BME280;38103;42.776;23.112;2022-08-20T00:12:46;93646.00;;;20.95;63.67
52105;BME280;38103;42.776;23.112;2022-08-20T00:15:13;93651.13;;;20.82;63.41
52105;BME280;38103;42.776;23.112;2022-08-20T00:17:40;93650.28;;;20.73;63.84
52105;BME280;38103;42.776;23.112;2022-08-20T00:20:08;93656.94;;;20.52;64.30
52105;BME280;38103;42.776;23.112;2022-08-20T00:22:34;93653.41;;;20.43;64.74
52105;BME280;38103;42.776;23.112;2022-08-20T00:25:01;93574.25;;;19.94;64.74
52105;BME280;38103;42.776;23.112;2022-08-20T00:27:26;93656.38;;;20.41;64.52
52105;BME280;38103;42.776;23.112;2022-08-20T00:29:51;93655.63;;;20.41;64.99
52105;BME280;38103;42.776;23.112;2022-08-20T00:32:17;93648.44;;;20.36;64.87
52105;BME280;38103;42.776;23.112;2022-08-20T00:34:42;93649.69;;;20.30;65.14
52105;BME280;38103;42.776;23.112;2022-08-20T00:37:08;93637.19;;;20.11;65.73
52105;BME280;38103;42.776;23.112;2022-08-20T00:39:34;93642.38;;;20.07;66.26
52105;BME280;38103;42.776;23.112;2022-08-20T00:42:01;93632.03;;;20.01;66.00
52105;BME280;38103;42.776;23.112;2022-08-20T00:44:27;93631.66;;;19.93;66.48
52105;BME280;38103;42.776;23.112;2022-08-20T00:46:53;93624.47;;;20.03;66.38
52105;BME280;38103;42.776;23.112;2022-08-20T00:49:22;93585.81;;;19.81;66.54
52105;BME280;38103;42.776;23.112;2022-08-20T00:51:56;93640.03;;;20.29;67.38
52105;BME280;38103;42.776;23.112;2022-08-20T00:56:59;93633.09;;;20.51;68.08
52105;BME280;38103;42.776;23.112;2022-08-20T00:59:30;93624.91;;;20.56;67.56
52105;BME280;38103;42.776;23.112;2022-08-20T01:01:56;93627.38;;;20.43;66.42
52105;BME280;38103;42.776;23.112;2022-08-20T01:04:25;93622.47;;;20.46;66.68
52105;BME280;38103;42.776;23.112;2022-08-20T01:06:51;93625.16;;;20.46;66.08
52105;BME280;38103;42.776;23.112;2022-08-20T01:09:16;93611.63;;;20.51;67.21
52105;BME280;38103;42.776;23.112;2022-08-20T01:11:42;93613.78;;;20.49;65.40
52105;BME280;38103;42.776;23.112;2022-08-20T01:14:12;93611.63;;;20.51;65.91
52105;BME280;38103;42.776;23.112;2022-08-20T01:17:01;93608.06;;;20.41;65.81
52105;BME280;38103;42.776;23.112;2022-08-20T01:19:45;93581.09;;;20.24;65.93
52105;BME280;38103;42.776;23.112;2022-08-20T01:22:14;93594.63;;;20.18;65.56
52105;BME280;38103;42.776;23.112;2022-08-20T01:25:09;93592.84;;;20.28;65.52
52105;BME280;38103;42.776;23.112;2022-08-20T01:27:38;93602.56;;;20.24;66.35
52105;BME280;38103;42.776;23.112;2022-08-20T01:30:05;93597.56;;;20.31;68.06
52105;BME280;38103;42.776;23.112;2022-08-20T01:32:31;93603.94;;;20.35;68.25
52105;BME280;38103;42.776;23.112;2022-08-20T01:34:56;93604.78;;;20.45;68.05
52105;BME280;38103;42.776;23.112;2022-08-20T01:37:21;93608.41;;;20.49;67.95
52105;BME280;38103;42.776;23.112;2022-08-20T01:39:47;93602.44;;;20.52;67.78
52105;BME280;38103;42.776;23.112;2022-08-20T01:42:36;93599.28;;;20.50;66.24
52105;BME280;38103;42.776;23.112;2022-08-20T01:45:04;93599.78;;;20.29;66.65
52105;BME280;38103;42.776;23.112;2022-08-20T01:47:32;93598.81;;;20.25;66.74
52105;BME280;38103;42.776;23.112;2022-08-20T01:50:02;93592.84;;;20.28;67.38
52105;BME280;38103;42.776;23.112;2022-08-20T01:52:39;93604.41;;;20.37;67.53
52105;BME280;38103;42.776;23.112;2022-08-20T01:55:08;93608.31;;;20.31;67.80
52105;BME280;38103;42.776;23.112;2022-08-20T01:57:35;93584.91;;;20.23;68.47
52105;BME280;38103;42.776;23.112;2022-08-20T02:00:07;93603.44;;;19.96;68.49
52105;BME280;38103;42.776;23.112;2022-08-20T02:02:33;93596.66;;;19.75;69.26
52105;BME280;38103;42.776;23.112;2022-08-20T02:04:59;93595.56;;;19.62;70.37
52105;BME280;38103;42.776;23.112;2022-08-20T02:07:25;93600.34;;;19.51;70.40
52105;BME280;38103;42.776;23.112;2022-08-20T02:09:51;93591.34;;;19.47;70.20
52105;BME280;38103;42.776;23.112;2022-08-20T02:12:16;93510.25;;;18.85;70.20
52105;BME280;38103;42.776;23.112;2022-08-20T02:14:46;93588.25;;;19.26;70.27
52105;BME280;38103;42.776;23.112;2022-08-20T02:17:13;93586.06;;;19.28;70.73
52105;BME280;38103;42.776;23.112;2022-08-20T02:19:50;93587.69;;;19.29;70.21
52105;BME280;38103;42.776;23.112;2022-08-20T02:22:26;93583.28;;;19.47;70.34
52105;BME280;38103;42.776;23.112;2022-08-20T02:24:53;93586.47;;;19.49;70.47
52105;BME280;38103;42.776;23.112;2022-08-20T02:27:19;93589.72;;;19.46;70.88
52105;BME280;38103;42.776;23.112;2022-08-20T02:29:47;93582.31;;;19.43;71.15
52105;BME280;38103;42.776;23.112;2022-08-20T02:32:13;93587.06;;;19.46;71.42
52105;BME280;38103;42.776;23.112;2022-08-20T02:34:38;93591.22;;;19.52;72.37
52105;BME280;38103;42.776;23.112;2022-08-20T02:37:05;93592.19;;;19.57;71.90
52105;BME280;38103;42.776;23.112;2022-08-20T02:39:32;93594.19;;;19.51;72.26
52105;BME280;38103;42.776;23.112;2022-08-20T02:41:58;93577.53;;;19.26;71.48
52105;BME280;38103;42.776;23.112;2022-08-20T02:44:23;93556.91;;;19.26;72.15
52105;BME280;38103;42.776;23.112;2022-08-20T02:46:49;93603.03;;;19.51;71.18
52105;BME280;38103;42.776;23.112;2022-08-20T02:49:18;93602.53;;;19.49;71.98
52105;BME280;38103;42.776;23.112;2022-08-20T02:51:44;93593.03;;;19.43;71.96
52105;BME280;38103;42.776;23.112;2022-08-20T02:54:10;93602.25;;;19.37;72.38
52105;BME280;38103;42.776;23.112;2022-08-20T02:56:36;93604.31;;;18.97;73.05
52105;BME280;38103;42.776;23.112;2022-08-20T02:59:03;93600.53;;;18.84;73.72
52105;BME280;38103;42.776;23.112;2022-08-20T03:01:28;93593.78;;;18.87;73.88
52105;BME280;38103;42.776;23.112;2022-08-20T03:03:55;93590.59;;;18.85;74.38
52105;BME280;38103;42.776;23.112;2022-08-20T03:06:23;93593.69;;;18.78;74.53
52105;BME280;38103;42.776;23.112;2022-08-20T03:08:49;93589.22;;;18.87;75.30
52105;BME280;38103;42.776;23.112;2022-08-20T03:11:15;93593.19;;;18.76;75.04
52105;BME280;38103;42.776;23.112;2022-08-20T03:13:41;93596.38;;;18.78;74.87
52105;BME280;38103;42.776;23.112;2022-08-20T03:16:07;93583.81;;;18.59;75.12
52105;BME280;38103;42.776;23.112;2022-08-20T03:18:36;93589.19;;;18.59;75.49
52105;BME280;38103;42.776;23.112;2022-08-20T03:21:03;93597.38;;;18.49;75.68
52105;BME280;38103;42.776;23.112;2022-08-20T03:23:28;93594.47;;;18.31;76.57
52105;BME280;38103;42.776;23.112;2022-08-20T03:25:54;93501.94;;;17.58;77.44
52105;BME280;38103;42.776;23.112;2022-08-20T03:28:19;93598.44;;;18.14;78.44
52105;BME280;38103;42.776;23.112;2022-08-20T03:30:46;93595.31;;;18.07;78.72
52105;BME280;38103;42.776;23.112;2022-08-20T03:33:12;93595.41;;;18.02;79.36
52105;BME280;38103;42.776;23.112;2022-08-20T03:35:38;93605.03;;;18.03;79.63
52105;BME280;38103;42.776;23.112;2022-08-20T03:38:09;93606.44;;;18.14;79.27
52105;BME280;38103;42.776;23.112;2022-08-20T03:40:36;93612.03;;;18.18;79.24
52105;BME280;38103;42.776;23.112;2022-08-20T03:43:04;93573.66;;;17.89;79.20
52105;BME280;38103;42.776;23.112;2022-08-20T03:45:33;93610.69;;;18.20;78.79
52105;BME280;38103;42.776;23.112;2022-08-20T03:48:01;93622.06;;;18.07;78.97
52105;BME280;38103;42.776;23.112;2022-08-20T03:50:28;93612.97;;;18.08;79.19
52105;BME280;38103;42.776;23.112;2022-08-20T03:52:54;93608.13;;;18.10;79.29
52105;BME280;38103;42.776;23.112;2022-08-20T03:55:22;93622.06;;;18.07;79.82
52105;BME280;38103;42.776;23.112;2022-08-20T03:57:52;93620.28;;;18.02;79.49
52105;BME280;38103;42.776;23.112;2022-08-20T04:00:34;93616.31;;;18.00;79.84
52105;BME280;38103;42.776;23.112;2022-08-20T04:03:00;93615.44;;;18.04;80.05
52105;BME280;38103;42.776;23.112;2022-08-20T04:05:28;93611.47;;;18.21;79.09
52105;BME280;38103;42.776;23.112;2022-08-20T04:07:56;93612.69;;;18.29;79.29
52105;BME280;38103;42.776;23.112;2022-08-20T04:10:22;93613.13;;;18.36;79.31
52105;BME280;38103;42.776;23.112;2022-08-20T04:12:48;93616.50;;;18.42;78.95
52105;BME280;38103;42.776;23.112;2022-08-20T04:15:15;93616.22;;;18.43;78.88
52105;BME280;38103;42.776;23.112;2022-08-20T04:17:45;93606.50;;;18.48;78.38
52105;BME280;38103;42.776;23.112;2022-08-20T04:20:14;93610.19;;;18.52;78.50
52105;BME280;38103;42.776;23.112;2022-08-20T04:22:40;93609.00;;;18.58;78.91
52105;BME280;38103;42.776;23.112;2022-08-20T04:25:07;93609.34;;;18.71;78.42
52105;BME280;38103;42.776;23.112;2022-08-20T04:27:37;93611.84;;;18.95;77.92
52105;BME280;38103;42.776;23.112;2022-08-20T04:30:09;93615.88;;;19.26;78.26
52105;BME280;38103;42.776;23.112;2022-08-20T04:32:39;93622.00;;;19.41;77.71
52105;BME280;38103;42.776;23.112;2022-08-20T04:35:08;93525.34;;;18.95;76.58
52105;BME280;38103;42.776;23.112;2022-08-20T04:37:36;93634.09;;;19.81;75.76
52105;BME280;38103;42.776;23.112;2022-08-20T04:40:06;93622.91;;;20.02;76.37
52105;BME280;38103;42.776;23.112;2022-08-20T04:42:50;93623.31;;;20.32;74.41
52105;BME280;38103;42.776;23.112;2022-08-20T04:45:16;93621.13;;;20.57;72.68
52105;BME280;38103;42.776;23.112;2022-08-20T04:47:41;93614.16;;;20.79;71.51
52105;BME280;38103;42.776;23.112;2022-08-20T04:50:09;93613.00;;;21.03;70.41
52105;BME280;38103;42.776;23.112;2022-08-20T04:52:35;93617.53;;;21.26;69.68
52105;BME280;38103;42.776;23.112;2022-08-20T04:55:03;93622.97;;;21.52;68.96
52105;BME280;38103;42.776;23.112;2022-08-20T04:57:29;93624.47;;;21.76;68.30
52105;BME280;38103;42.776;23.112;2022-08-20T04:59:55;93625.16;;;22.00;67.01
52105;BME280;38103;42.776;23.112;2022-08-20T05:02:20;93624.84;;;22.19;67.33
52105;BME280;38103;42.776;23.112;2022-08-20T05:04:46;93620.72;;;22.49;65.42
52105;BME280;38103;42.776;23.112;2022-08-20T05:07:13;93557.66;;;22.32;64.04
52105;BME280;38103;42.776;23.112;2022-08-20T05:09:40;93617.28;;;22.96;64.29
52105;BME280;38103;42.776;23.112;2022-08-20T05:12:06;93612.16;;;23.21;63.29
52105;BME280;38103;42.776;23.112;2022-08-20T05:14:31;93625.38;;;23.44;62.60
52105;BME280;38103;42.776;23.112;2022-08-20T05:16:56;93621.84;;;23.53;62.07
52105;BME280;38103;42.776;23.112;2022-08-20T05:19:22;93627.66;;;23.64;61.30
52105;BME280;38103;42.776;23.112;2022-08-20T05:21:48;93574.88;;;23.15;61.48
52105;BME280;38103;42.776;23.112;2022-08-20T05:24:17;93565.84;;;22.80;62.09
52105;BME280;38103;42.776;23.112;2022-08-20T05:26:44;93600.63;;;23.03;61.24
52105;BME280;38103;42.776;23.112;2022-08-20T05:29:09;93619.31;;;23.57;60.61
52105;BME280;38103;42.776;23.112;2022-08-20T05:31:35;93595.28;;;23.64;60.18
52105;BME280;38103;42.776;23.112;2022-08-20T05:34:06;93623.91;;;24.08;59.68
52105;BME280;38103;42.776;23.112;2022-08-20T05:36:34;93619.44;;;24.33;57.34
52105;BME280;38103;42.776;23.112;2022-08-20T05:38:59;93621.66;;;24.53;56.68
52105;BME280;38103;42.776;23.112;2022-08-20T05:41:25;93618.81;;;24.83;56.45
52105;BME280;38103;42.776;23.112;2022-08-20T05:43:54;93617.22;;;24.82;53.72
52105;BME280;38103;42.776;23.112;2022-08-20T05:46:19;93614.94;;;25.06;55.05
52105;BME280;38103;42.776;23.112;2022-08-20T05:48:45;93623.44;;;25.29;54.54
52105;BME280;38103;42.776;23.112;2022-08-20T05:51:10;93620.50;;;25.60;54.01
52105;BME280;38103;42.776;23.112;2022-08-20T05:53:36;93621.41;;;25.89;52.87
52105;BME280;38103;42.776;23.112;2022-08-20T05:56:02;93610.06;;;26.12;52.35
52105;BME280;38103;42.776;23.112;2022-08-20T05:58:28;93598.91;;;26.42;52.07
52105;BME280;38103;42.776;23.112;2022-08-20T06:00:54;93599.22;;;26.53;51.30
52105;BME280;38103;42.776;23.112;2022-08-20T06:03:21;93606.94;;;26.67;50.54
52105;BME280;38103;42.776;23.112;2022-08-20T06:06:05;93597.28;;;26.99;50.26
52105;BME280;38103;42.776;23.112;2022-08-20T06:08:31;93594.69;;;27.19;49.57
52105;BME280;38103;42.776;23.112;2022-08-20T06:10:56;93607.69;;;26.97;48.67
52105;BME280;38103;42.776;23.112;2022-08-20T06:13:22;93609.31;;;26.85;48.65
52105;BME280;38103;42.776;23.112;2022-08-20T06:15:47;93614.53;;;26.33;49.92
52105;BME280;38103;42.776;23.112;2022-08-20T06:18:13;93604.72;;;26.57;49.40
52105;BME280;38103;42.776;23.112;2022-08-20T06:20:38;93599.28;;;25.99;51.10
52105;BME280;38103;42.776;23.112;2022-08-20T06:23:05;93597.28;;;25.59;51.96
52105;BME280;38103;42.776;23.112;2022-08-20T06:25:31;93535.03;;;25.59;51.13
52105;BME280;38103;42.776;23.112;2022-08-20T06:27:59;93597.94;;;25.81;51.33
52105;BME280;38103;42.776;23.112;2022-08-20T06:30:25;93590.69;;;25.72;51.55
52105;BME280;38103;42.776;23.112;2022-08-20T06:32:50;93591.00;;;26.37;52.38
52105;BME280;38103;42.776;23.112;2022-08-20T06:35:16;93598.06;;;26.26;50.22
52105;BME280;38103;42.776;23.112;2022-08-20T06:37:42;93589.59;;;25.61;51.63
52105;BME280;38103;42.776;23.112;2022-08-20T06:40:14;93586.69;;;25.41;52.56
52105;BME280;38103;42.776;23.112;2022-08-20T06:42:40;93585.53;;;25.92;52.10
52105;BME280;38103;42.776;23.112;2022-08-20T06:45:12;93580.28;;;26.12;51.11
52105;BME280;38103;42.776;23.112;2022-08-20T06:47:40;93583.84;;;26.16;50.87
52105;BME280;38103;42.776;23.112;2022-08-20T06:50:08;93586.75;;;26.23;52.01
52105;BME280;38103;42.776;23.112;2022-08-20T06:52:34;93549.94;;;26.35;51.09
52105;BME280;38103;42.776;23.112;2022-08-20T06:54:59;93578.50;;;26.32;49.67
52105;BME280;38103;42.776;23.112;2022-08-20T06:57:24;93584.16;;;25.86;52.79
52105;BME280;38103;42.776;23.112;2022-08-20T06:59:53;93585.69;;;26.12;50.71
52105;BME280;38103;42.776;23.112;2022-08-20T07:02:19;93583.72;;;26.25;51.33
52105;BME280;38103;42.776;23.112;2022-08-20T07:04:44;93582.44;;;26.35;50.63
52105;BME280;38103;42.776;23.112;2022-08-20T07:07:17;93587.41;;;26.46;52.02
52105;BME280;38103;42.776;23.112;2022-08-20T07:09:44;93593.63;;;26.62;51.16
52105;BME280;38103;42.776;23.112;2022-08-20T07:12:10;93580.22;;;26.82;49.39
52105;BME280;38103;42.776;23.112;2022-08-20T07:14:35;93571.00;;;26.71;49.89
52105;BME280;38103;42.776;23.112;2022-08-20T07:17:02;93571.78;;;26.42;50.52
52105;BME280;38103;42.776;23.112;2022-08-20T07:19:27;93581.97;;;26.46;50.17
52105;BME280;38103;42.776;23.112;2022-08-20T07:21:53;93571.03;;;26.13;51.00
52105;BME280;38103;42.776;23.112;2022-08-20T07:24:18;93574.66;;;26.05;50.50
52105;BME280;38103;42.776;23.112;2022-08-20T07:26:43;93572.88;;;25.96;52.26
52105;BME280;38103;42.776;23.112;2022-08-20T07:29:09;93530.94;;;25.65;52.53
52105;BME280;38103;42.776;23.112;2022-08-20T07:31:35;93573.97;;;26.08;52.12
52105;BME280;38103;42.776;23.112;2022-08-20T07:34:19;93565.94;;;26.40;51.21
52105;BME280;38103;42.776;23.112;2022-08-20T07:36:44;93562.06;;;26.25;51.49
52105;BME280;38103;42.776;23.112;2022-08-20T07:39:13;93565.03;;;26.49;50.94
52105;BME280;38103;42.776;23.112;2022-08-20T07:41:38;93563.31;;;26.73;49.87
52105;BME280;38103;42.776;23.112;2022-08-20T07:44:03;93580.78;;;26.59;49.77
52105;BME280;38103;42.776;23.112;2022-08-20T07:46:29;93569.22;;;26.62;50.07
52105;BME280;38103;42.776;23.112;2022-08-20T07:48:55;93571.91;;;26.75;50.27
52105;BME280;38103;42.776;23.112;2022-08-20T07:51:21;93579.06;;;26.83;49.04
52105;BME280;38103;42.776;23.112;2022-08-20T07:53:49;93570.31;;;26.74;50.00
52105;BME280;38103;42.776;23.112;2022-08-20T07:56:21;93559.81;;;26.88;49.39
52105;BME280;38103;42.776;23.112;2022-08-20T07:58:50;93577.34;;;27.07;48.96
52105;BME280;38103;42.776;23.112;2022-08-20T08:01:24;93569.28;;;26.95;49.30
52105;BME280;38103;42.776;23.112;2022-08-20T08:03:51;93550.19;;;27.07;49.45
52105;BME280;38103;42.776;23.112;2022-08-20T08:06:21;93565.03;;;27.26;49.03
52105;BME280;38103;42.776;23.112;2022-08-20T08:08:47;93554.34;;;27.33;48.89
52105;BME280;38103;42.776;23.112;2022-08-20T08:11:14;93567.38;;;27.44;48.01
52105;BME280;38103;42.776;23.112;2022-08-20T08:13:40;93555.84;;;27.67;47.55
52105;BME280;38103;42.776;23.112;2022-08-20T08:16:07;93555.03;;;27.83;46.92
52105;BME280;38103;42.776;23.112;2022-08-20T08:18:46;93550.31;;;27.99;47.17
52105;BME280;38103;42.776;23.112;2022-08-20T08:21:14;93548.75;;;28.18;47.08
52105;BME280;38103;42.776;23.112;2022-08-20T08:23:40;93547.47;;;28.32;44.43
52105;BME280;38103;42.776;23.112;2022-08-20T08:26:09;93546.19;;;28.06;44.80
52105;BME280;38103;42.776;23.112;2022-08-20T08:28:34;93546.09;;;28.02;45.95
52105;BME280;38103;42.776;23.112;2022-08-20T08:31:01;93548.31;;;27.96;46.34
52105;BME280;38103;42.776;23.112;2022-08-20T08:33:29;93540.31;;;28.23;45.72
52105;BME280;38103;42.776;23.112;2022-08-20T08:36:00;93543.00;;;28.43;44.49
52105;BME280;38103;42.776;23.112;2022-08-20T08:38:28;93533.44;;;28.30;44.48
52105;BME280;38103;42.776;23.112;2022-08-20T08:40:56;93537.63;;;28.04;45.24
52105;BME280;38103;42.776;23.112;2022-08-20T08:43:24;93536.19;;;28.50;45.33
52105;BME280;38103;42.776;23.112;2022-08-20T08:45:58;93524.09;;;28.71;44.65
52105;BME280;38103;42.776;23.112;2022-08-20T08:48:30;93529.41;;;28.63;43.60
52105;BME280;38103;42.776;23.112;2022-08-20T08:50:57;93533.59;;;28.57;42.90
52105;BME280;38103;42.776;23.112;2022-08-20T08:53:36;93522.84;;;28.25;43.65
52105;BME280;38103;42.776;23.112;2022-08-20T08:56:04;93527.59;;;28.48;44.19
52105;BME280;38103;42.776;23.112;2022-08-20T08:58:30;93523.25;;;28.66;43.99
52105;BME280;38103;42.776;23.112;2022-08-20T09:01:01;93520.22;;;28.72;43.18
52105;BME280;38103;42.776;23.112;2022-08-20T09:03:29;93523.19;;;28.63;43.49
52105;BME280;38103;42.776;23.112;2022-08-20T09:05:58;93523.50;;;28.81;43.20
52105;BME280;38103;42.776;23.112;2022-08-20T09:11:17;93528.63;;;28.63;42.95
52105;BME280;38103;42.776;23.112;2022-08-20T09:13:44;93520.03;;;28.61;44.34
52105;BME280;38103;42.776;23.112;2022-08-20T09:16:11;93524.81;;;28.67;42.77
52105;BME280;38103;42.776;23.112;2022-08-20T09:18:36;93519.28;;;28.60;42.67
52105;BME280;38103;42.776;23.112;2022-08-20T09:21:02;93520.53;;;28.66;43.68
52105;BME280;38103;42.776;23.112;2022-08-20T09:23:27;93517.56;;;28.52;43.33
52105;BME280;38103;42.776;23.112;2022-08-20T09:25:53;93505.50;;;28.73;42.64
52105;BME280;38103;42.776;23.112;2022-08-20T09:28:18;93504.28;;;28.94;42.26
52105;BME280;38103;42.776;23.112;2022-08-20T09:30:43;93487.28;;;29.00;41.51
52105;BME280;38103;42.776;23.112;2022-08-20T09:33:09;93500.59;;;28.82;42.54
52105;BME280;38103;42.776;23.112;2022-08-20T09:35:34;93507.66;;;29.10;42.44
52105;BME280;38103;42.776;23.112;2022-08-20T09:38:00;93428.94;;;28.04;41.95
52105;BME280;38103;42.776;23.112;2022-08-20T09:40:25;93488.38;;;28.49;42.75
52105;BME280;38103;42.776;23.112;2022-08-20T09:42:51;93512.03;;;28.48;43.27
52105;BME280;38103;42.776;23.112;2022-08-20T09:45:17;93502.94;;;28.60;42.25
52105;BME280;38103;42.776;23.112;2022-08-20T09:47:43;93491.69;;;28.85;42.08
52105;BME280;38103;42.776;23.112;2022-08-20T09:50:09;93499.06;;;29.08;44.10
52105;BME280;38103;42.776;23.112;2022-08-20T09:52:38;93483.22;;;28.91;40.67
52105;BME280;38103;42.776;23.112;2022-08-20T09:55:41;93501.06;;;28.88;40.89
52105;BME280;38103;42.776;23.112;2022-08-20T09:58:47;93497.88;;;28.82;40.92
52105;BME280;38103;42.776;23.112;2022-08-20T10:01:15;93498.75;;;28.90;41.83
52105;BME280;38103;42.776;23.112;2022-08-20T10:03:42;93500.75;;;29.17;40.95
52105;BME280;38103;42.776;23.112;2022-08-20T10:06:08;93500.13;;;29.27;41.30
52105;BME280;38103;42.776;23.112;2022-08-20T10:08:35;93495.78;;;29.50;39.65
52105;BME280;38103;42.776;23.112;2022-08-20T10:11:01;93493.81;;;29.77;41.06
52105;BME280;38103;42.776;23.112;2022-08-20T10:13:26;93490.28;;;29.73;40.00
52105;BME280;38103;42.776;23.112;2022-08-20T10:15:51;93496.38;;;29.97;40.48
52105;BME280;38103;42.776;23.112;2022-08-20T10:18:17;93381.19;;;29.31;41.81
52105;BME280;38103;42.776;23.112;2022-08-20T10:20:42;93484.63;;;29.89;41.03
52105;BME280;38103;42.776;23.112;2022-08-20T10:23:08;93483.78;;;29.82;39.15
52105;BME280;38103;42.776;23.112;2022-08-20T10:25:33;93487.78;;;29.92;40.22
52105;BME280;38103;42.776;23.112;2022-08-20T10:27:59;93488.66;;;29.99;40.10
52105;BME280;38103;42.776;23.112;2022-08-20T10:30:24;93485.16;;;30.03;39.74
52105;BME280;38103;42.776;23.112;2022-08-20T10:32:50;93486.13;;;29.83;40.09
52105;BME280;38103;42.776;23.112;2022-08-20T10:35:16;93488.38;;;29.77;39.46
52105;BME280;38103;42.776;23.112;2022-08-20T10:37:41;93484.28;;;29.64;40.29
52105;BME280;38103;42.776;23.112;2022-08-20T10:40:07;93482.75;;;29.66;40.26
52105;BME280;38103;42.776;23.112;2022-08-20T10:42:33;93482.66;;;29.59;39.76
52105;BME280;38103;42.776;23.112;2022-08-20T10:44:58;93473.75;;;29.31;40.68
52105;BME280;38103;42.776;23.112;2022-08-20T10:47:29;93475.53;;;29.51;41.03
52105;BME280;38103;42.776;23.112;2022-08-20T10:49:59;93477.38;;;29.70;39.96
52105;BME280;38103;42.776;23.112;2022-08-20T10:52:25;93472.00;;;29.74;40.26
52105;BME280;38103;42.776;23.112;2022-08-20T10:54:51;93470.97;;;29.86;40.78
52105;BME280;38103;42.776;23.112;2022-08-20T10:57:25;93466.66;;;29.85;39.98
52105;BME280;38103;42.776;23.112;2022-08-20T10:59:51;93454.09;;;30.11;39.33
52105;BME280;38103;42.776;23.112;2022-08-20T11:02:17;93455.19;;;30.03;40.05
52105;BME280;38103;42.776;23.112;2022-08-20T11:04:43;93455.34;;;30.17;39.28
52105;BME280;38103;42.776;23.112;2022-08-20T11:07:23;93452.34;;;30.30;39.19
52105;BME280;38103;42.776;23.112;2022-08-20T11:09:49;93440.97;;;30.59;38.22
52105;BME280;38103;42.776;23.112;2022-08-20T11:12:16;93446.63;;;30.84;39.30
52105;BME280;38103;42.776;23.112;2022-08-20T11:14:42;93442.78;;;30.93;36.99
52105;BME280;38103;42.776;23.112;2022-08-20T11:17:08;93434.03;;;30.69;38.41
52105;BME280;38103;42.776;23.112;2022-08-20T11:19:39;93431.69;;;30.71;38.18
52105;BME280;38103;42.776;23.112;2022-08-20T11:22:05;93438.53;;;30.50;37.54
52105;BME280;38103;42.776;23.112;2022-08-20T11:24:30;93435.28;;;30.33;37.43
52105;BME280;38103;42.776;23.112;2022-08-20T11:26:56;93423.44;;;30.21;37.47
52105;BME280;38103;42.776;23.112;2022-08-20T11:29:21;93419.72;;;30.37;39.46
52105;BME280;38103;42.776;23.112;2022-08-20T11:31:47;93419.91;;;30.59;37.31
52105;BME280;38103;42.776;23.112;2022-08-20T11:34:13;93393.44;;;30.63;39.40
52105;BME280;38103;42.776;23.112;2022-08-20T11:36:38;93405.75;;;30.42;37.43
52105;BME280;38103;42.776;23.112;2022-08-20T11:39:04;93401.50;;;30.45;37.22
52105;BME280;38103;42.776;23.112;2022-08-20T11:41:30;93389.31;;;29.93;38.17
52105;BME280;38103;42.776;23.112;2022-08-20T11:43:55;93402.72;;;30.13;37.91
52105;BME280;38103;42.776;23.112;2022-08-20T11:46:20;93398.22;;;29.90;38.06
52105;BME280;38103;42.776;23.112;2022-08-20T11:48:46;93399.78;;;29.91;38.82
52105;BME280;38103;42.776;23.112;2022-08-20T11:51:11;93409.59;;;29.65;38.63
52105;BME280;38103;42.776;23.112;2022-08-20T11:53:36;93405.09;;;29.76;37.48
52105;BME280;38103;42.776;23.112;2022-08-20T11:56:02;93390.94;;;29.67;38.97
52105;BME280;38103;42.776;23.112;2022-08-20T11:58:27;93413.81;;;29.93;39.98
52105;BME280;38103;42.776;23.112;2022-08-20T12:00:53;93408.50;;;30.08;38.48
52105;BME280;38103;42.776;23.112;2022-08-20T12:03:18;93413.28;;;30.18;38.56
52105;BME280;38103;42.776;23.112;2022-08-20T12:05:45;93411.06;;;30.28;39.07
52105;BME280;38103;42.776;23.112;2022-08-20T12:08:12;93409.06;;;30.25;39.49
52105;BME280;38103;42.776;23.112;2022-08-20T12:10:38;93421.38;;;30.45;39.42
52105;BME280;38103;42.776;23.112;2022-08-20T12:13:05;93420.97;;;30.43;40.57
52105;BME280;38103;42.776;23.112;2022-08-20T12:15:35;93432.69;;;30.48;41.28
52105;BME280;38103;42.776;23.112;2022-08-20T12:18:08;93435.47;;;30.55;44.67
52105;BME280;38103;42.776;23.112;2022-08-20T12:20:35;93441.53;;;30.37;47.04
52105;BME280;38103;42.776;23.112;2022-08-20T12:23:01;93444.19;;;30.30;44.57
52105;BME280;38103;42.776;23.112;2022-08-20T12:25:27;93435.31;;;29.67;46.25
52105;BME280;38103;42.776;23.112;2022-08-20T12:27:52;93420.66;;;29.18;46.52
52105;BME280;38103;42.776;23.112;2022-08-20T12:30:21;93409.88;;;29.25;48.36
52105;BME280;38103;42.776;23.112;2022-08-20T12:32:48;93412.91;;;29.20;46.64
52105;BME280;38103;42.776;23.112;2022-08-20T12:35:15;93408.53;;;29.11;48.46
52105;BME280;38103;42.776;23.112;2022-08-20T12:37:41;93414.13;;;29.22;46.25
52105;BME280;38103;42.776;23.112;2022-08-20T12:40:19;93407.34;;;29.09;46.37
52105;BME280;38103;42.776;23.112;2022-08-20T12:42:45;93400.09;;;28.93;43.07
52105;BME280;38103;42.776;23.112;2022-08-20T12:45:11;93399.00;;;28.98;44.11
52105;BME280;38103;42.776;23.112;2022-08-20T12:47:39;93399.31;;;28.93;44.85
52105;BME280;38103;42.776;23.112;2022-08-20T12:50:09;93406.00;;;28.99;45.73
52105;BME280;38103;42.776;23.112;2022-08-20T12:52:35;93420.88;;;29.05;48.71
52105;BME280;38103;42.776;23.112;2022-08-20T12:55:01;93421.59;;;29.02;47.21
52105;BME280;38103;42.776;23.112;2022-08-20T12:57:36;93423.81;;;29.20;48.26